• Join FlightAware (Why Join?)
  • Login
  • US Flag 
12:23AM EDT


 

Airport Tracker/Info


-or-


 

Live Flight TrackerFlight Track Log ✈ LOF3359 ✈ 17-Apr-2013 ✈ KDAY - KIAD

Flight Track Log - Related Links

Times and Time Zones

All times are in EDT time to prevent confusion due to time zone crossing. See the LOF3359 flight status page for this flight to view local times or setup timezone preferences in your user account.

Time Position Orientation Groundspeed Altitude Reporting Facility
EDT Latitude Longitude Course Direction KTS MPH feet Rate Location/Type
02:33PM 39.9414 -84.1792 52° Northeast 183 211 2,700  Level Indianapolis Center
02:34PM 39.9450 -84.1522 80° East 198 228 3,500 1,500 Climbing Indianapolis Center
02:35PM 39.9581 -84.0669 79° East 229 264 5,000 2,040 Climbing Indianapolis Center
02:36PM 39.9736 -83.9481 80° East 267 307 7,800 2,460 Climbing Indianapolis Center
02:37PM 39.9879 -83.5790 79° East  Level FlightAware Approximate
02:37PM 39.9881 -83.8444 80° East 280 322 10,200  Level Indianapolis Center
02:38PM 40.0107 -83.4520 74° East  Level FlightAware Approximate
02:38PM 40.0033 -83.7331 80° East 309 356 11,600  Level Indianapolis Center
02:39PM 40.0203 -83.6078 80° East 344 396 12,900 1,200 Climbing Indianapolis Center
02:40PM 40.0381 -83.4733 80° East 367 422 14,100 1,200 Climbing Indianapolis Center
02:41PM 40.0558 -83.3342 80° East 380 437 15,400 1,200 Climbing Indianapolis Center
02:42PM 40.0747 -83.1919 80° East 390 449 16,600 1,140 Climbing Indianapolis Center
02:43PM 40.0933 -83.0494 80° East 394 453 17,800 1,080 Climbing Indianapolis Center
02:44PM 40.1117 -82.9039 81° East 401 461 18,900 1,080 Climbing Indianapolis Center
02:45PM 40.1300 -82.7556 81° East 408 470 20,100 1,200 Climbing Indianapolis Center
02:46PM 40.1489 -82.6022 81° East 420 483 21,400 1,200 Climbing Indianapolis Center
02:47PM 40.1417 -82.4475 93° East 422 486 22,600 1,140 Climbing Indianapolis Center
02:48PM 40.1300 -82.2894 95° East 431 496 23,800 1,200 Climbing Indianapolis Center
02:49PM 40.1167 -82.1056 95° East 432 497 25,200 1,200 Climbing Indianapolis Center
02:50PM 40.1050 -81.9472 95° East 434 499 26,400 840 Climbing Indianapolis Center
02:51PM 40.0933 -81.7919 96° East 429 494 27,000 240 Climbing Indianapolis Center
02:52PM 40.0811 -81.6325 96° East 417 480 27,000  Level Indianapolis Center
02:53PM 40.0975 -81.4914 81° East 400 460 27,000  Level Indianapolis Center
02:54PM 40.1497 -81.4033 52° Northeast 373 429 27,000  Level Cleveland Center
02:55PM 40.2294 -81.3036 44° Northeast 373 429 27,000  Level Cleveland Center
02:56PM 40.3031 -81.1956 48° Northeast 382 440 27,000  Level Cleveland Center
02:57PM 40.3206 -81.0514 81° East 387 445 27,000  Level Cleveland Center
02:58PM 40.2625 -80.9314 122° Southeast 353 406 27,000  Level Cleveland Center
02:59PM 40.1628 -80.8711 155° Southeast 332 382 27,000  Level Cleveland Center
03:00PM 40.0606 -80.8164 158° South 359 413 27,000  Level Cleveland Center
03:01PM 39.9608 -80.7619 157° South 375 432 27,000  Level Cleveland Center
03:02PM 39.8608 -80.7103 158° South 388 447 27,000  Level Cleveland Center
03:03PM 39.7586 -80.6533 157° South 393 452 27,000  Level Cleveland Center
03:04PM 39.6564 -80.6019 159° South 393 452 27,000  Level Cleveland Center
03:05PM 39.5814 -80.4914 131° Southeast 393 452 27,000  Level Cleveland Center
03:06PM 39.5656 -80.3000 96° East 403 464 27,000  Level Washington Center
03:07PM 39.5517 -80.1186 96° East 464 534 27,000  Level Washington Center
03:08PM 39.5386 -79.9592 96° East 459 528 27,000  Level Washington Center
03:09PM 39.5236 -79.7942 97° East 459 528 27,000  Level Washington Center
03:10PM 39.5086 -79.6292 97° East 453 521 27,000 -300 Level Washington Center
03:11PM 39.4889 -79.4667 99° East 458 527 26,500 -720 Descending Washington Center
03:12PM 39.4603 -79.3119 103° East 452 520 25,600 -1,200 Descending Washington Center
03:13PM 39.4358 -79.1600 102° East 436 502 24,100 -1,620 Descending Washington Center
03:14PM 39.4089 -79.0136 103° East 421 484 22,400 -1,980 Descending Washington Center
03:15PM 39.3789 -78.8914 108° East 408 470 20,200 -2,400 Descending Washington Center
03:16PM 39.3536 -78.7453 103° East 395 455 17,700 -2,400 Descending Washington Center
03:17PM 39.3336 -78.6292 103° East 374 430 15,400 -2,460 Descending Washington Center
03:18PM 39.3081 -78.4858 103° East 369 425 12,800 -2,220 Descending Washington Center
03:19PM 39.2875 -78.3806 104° East 357 411 11,000 -900 Descending Washington Center
03:20PM 39.2397 -78.2794 121° Southeast 313 360 11,000 -600 Level Washington Center
03:21PM 39.1939 -78.1894 123° Southeast 303 349 9,800 -1,320 Descending Washington Center
03:22PM 39.1478 -78.1047 125° Southeast 297 342 8,400 -1,440 Descending Washington Center
03:23PM 39.1036 -78.0203 124° Southeast 291 335 7,000 -720 Descending Washington Center
03:24PM 39.0636 -77.9361 121° Southeast 291 335 7,000  Level Washington Center
03:25PM 39.0172 -77.8572 127° Southeast 281 323 7,100 -480 Climbing Washington Center
03:26PM 38.9728 -77.7756 125° Southeast 281 323 6,100 -540 Descending Washington Center
03:27PM 38.9578 -77.6792 101° East 265 305 6,100 -120 Level Washington Center
03:28PM 38.9333 -77.6167 117° Southeast 275 316 6,000 -780 Descending Potomac TRACON
03:29PM 38.8667 -77.5833 159° South 261 300 4,800 -1,020 Descending Potomac TRACON
03:30PM 38.8000 -77.5500 159° South 273 314 3,900 -840 Descending Potomac TRACON
03:31PM 38.8000 -77.4833 90° East 245 282 3,300 -660 Descending Potomac TRACON